Aviation Digital Data Service (ADDS)

Output produced by METARs form (0501 UTC 21 September 2017)
found at http://www.aviationweather.gov/adds/metars/
 
HTAR 210400Z 12010KT 9999 FEW007 BKN018 BKN080 16/15 Q1020
HTDA 210400Z 00000KT 9999 FEW012 SCT013 22/21 Q1017 NOSIG
TAF HTDA 202300Z 2100/2206 00000KT 9999 FEW016 
     BECMG 2106/2109 20010KT BKN019
       
HTDO 210400Z 09008KT 9999 FEW016 17/15 Q1021 NOSIG
HTDO 201700Z 2018/2118 09010KT 9999 FEW024
       
HTIR 210400Z 00000KT 9999 FEW016 16/12 Q1024
HTKJ 210400Z 00000KT 9999 FEW007 BKN020 18/18 Q1020 NOSIG
TAF HTKJ 202300Z 2100/2124 09005KT 9999 BKN025 BKN080 
     BECMG 2101/2105 00000KT BKN022
       
HTMT 210400Z 00000KT 9999 FEW019 20/20 Q1018
HTMW 210400Z 08008KT 9999 FEW018 FEW019CB 17/15 Q1017 NOSIG
HTMW 201700Z 2018/2118 00000KT 9999 FEW023 FEW024CB 
     TEMPO 2100/2106 30010KT TSRA SCT020 FEW023CB BKN090 
     BECMG 2116/2118 00000KT NSW
       
HTZA 210300Z 12005KT 9999 SCT018 25/23 Q1016 NOSIG
TAF HTZA 202300Z 2100/2124 00000KT 9999 SCT016 
     BECMG 2101/2103 21010KT BKN016 
     BECMG 2109/2111 13010KT SCT020 
     BECMG 2119/2121 00000KT